createdAt,value
2023-03-16T00:00:13.735Z,18.80
2023-03-16T00:02:44.269Z,18.60
2023-03-16T00:05:14.597Z,18.30
2023-03-16T00:07:43.524Z,18.10
2023-03-16T00:10:13.613Z,18.50
2023-03-16T00:12:43.450Z,18.10
2023-03-16T00:15:12.509Z,18.20
2023-03-16T00:17:40.552Z,18.60
2023-03-16T00:20:12.693Z,18.80
2023-03-16T00:22:41.756Z,18.50
2023-03-16T00:25:10.926Z,18.30
2023-03-16T00:27:39.142Z,18.30
2023-03-16T00:30:08.937Z,18.30
2023-03-16T00:32:39.824Z,18.50
2023-03-16T00:35:10.617Z,18.20
2023-03-16T00:37:39.555Z,18.30
2023-03-16T00:40:12.060Z,18.50
2023-03-16T00:42:40.154Z,18.40
2023-03-16T00:45:10.402Z,18.10
2023-03-16T00:47:38.354Z,18.40
2023-03-16T00:50:09.038Z,18.20
2023-03-16T00:52:38.077Z,18.10
2023-03-16T00:55:08.488Z,18.20
2023-03-16T00:57:36.529Z,18.10
2023-03-16T01:00:12.658Z,18.30
2023-03-16T01:02:40.615Z,18.50
2023-03-16T01:05:12.471Z,18.30
2023-03-16T01:07:40.937Z,18.50
2023-03-16T01:10:10.895Z,18.30
2023-03-16T01:12:39.136Z,18.10
2023-03-16T01:15:08.861Z,18.30
2023-03-16T01:17:36.881Z,18.40
2023-03-16T01:20:11.958Z,18.20
2023-03-16T01:22:42.172Z,18.40
2023-03-16T01:25:12.866Z,18.10
2023-03-16T01:27:40.858Z,18.50
2023-03-16T01:30:12.276Z,18.20
2023-03-16T01:32:40.468Z,18.50
2023-03-16T01:35:10.193Z,18.10
2023-03-16T01:37:38.455Z,18.10
2023-03-16T01:40:12.211Z,18.20
2023-03-16T01:42:47.249Z,18.10
2023-03-16T01:46:22.961Z,18.30
2023-03-16T01:49:07.971Z,18.40
2023-03-16T01:51:44.409Z,18.10
2023-03-16T01:54:23.139Z,18.20
2023-03-16T01:57:00.599Z,18.20
2023-03-16T01:59:34.284Z,18.20
2023-03-16T02:02:03.576Z,18.10
2023-03-16T02:04:44.130Z,18.40
2023-03-16T02:07:16.812Z,18.40
2023-03-16T02:09:47.647Z,18.30
2023-03-16T02:12:19.398Z,18.20
2023-03-16T02:14:48.687Z,18.50
2023-03-16T02:17:19.286Z,18.40
2023-03-16T02:20:00.770Z,18.50
2023-03-16T02:22:29.420Z,18.00
2023-03-16T02:24:57.418Z,18.20
2023-03-16T02:27:35.556Z,18.40
2023-03-16T02:30:11.546Z,18.20
2023-03-16T02:32:41.814Z,18.20
2023-03-16T02:35:14.561Z,18.10
2023-03-16T02:37:42.765Z,18.10
2023-03-16T02:40:25.006Z,18.20
2023-03-16T02:43:02.679Z,18.10
2023-03-16T02:45:36.637Z,18.00
2023-03-16T02:48:14.509Z,18.10
2023-03-16T02:50:47.952Z,18.00
2023-03-16T02:53:16.718Z,18.40
2023-03-16T02:55:45.774Z,18.00
2023-03-16T02:58:13.881Z,18.00
2023-03-16T03:00:45.233Z,18.10
2023-03-16T03:03:14.119Z,18.10
2023-03-16T03:05:42.316Z,18.20
2023-03-16T03:08:10.447Z,18.10
2023-03-16T03:10:38.433Z,18.00
2023-03-16T03:13:07.560Z,18.30
2023-03-16T03:15:36.271Z,18.30
2023-03-16T03:18:05.699Z,18.00
2023-03-16T03:20:33.904Z,17.90
2023-03-16T03:23:02.955Z,17.90
2023-03-16T03:25:34.605Z,17.80
2023-03-16T03:28:05.932Z,18.20
2023-03-16T03:30:34.248Z,18.00
2023-03-16T03:33:02.700Z,18.10
2023-03-16T03:35:32.620Z,18.20
2023-03-16T03:38:00.718Z,18.30
2023-03-16T03:40:28.983Z,18.00
2023-03-16T03:42:57.220Z,18.00
2023-03-16T03:45:25.350Z,18.00
2023-03-16T03:47:55.017Z,18.00
2023-03-16T03:50:23.424Z,18.10
2023-03-16T03:52:52.750Z,17.80
2023-03-16T03:55:20.715Z,18.00
2023-03-16T03:57:48.704Z,18.10
2023-03-16T04:00:20.733Z,18.10
2023-03-16T04:02:49.151Z,18.10
2023-03-16T04:05:17.353Z,18.00
2023-03-16T04:07:45.663Z,18.10
2023-03-16T04:10:15.171Z,18.00
2023-03-16T04:12:43.175Z,18.00
2023-03-16T04:15:12.960Z,18.00
2023-03-16T04:17:40.911Z,18.00
2023-03-16T04:20:14.553Z,18.20
2023-03-16T04:22:43.445Z,18.10
2023-03-16T04:25:11.902Z,18.30
2023-03-16T04:27:41.242Z,17.90
2023-03-16T04:30:12.680Z,18.20
2023-03-16T04:32:41.631Z,18.10
2023-03-16T04:35:11.336Z,17.80
2023-03-16T04:37:39.333Z,18.10
2023-03-16T04:40:11.825Z,18.10
2023-03-16T04:42:41.144Z,18.00
2023-03-16T04:45:10.459Z,18.10
2023-03-16T04:47:38.699Z,18.00
2023-03-16T04:50:08.635Z,18.10
2023-03-16T04:52:36.846Z,18.10
2023-03-16T04:55:05.949Z,18.20
2023-03-16T04:57:34.941Z,18.00
2023-03-16T05:00:11.618Z,18.10
2023-03-16T05:02:39.976Z,17.90
2023-03-16T05:05:09.013Z,18.10
2023-03-16T05:07:37.071Z,18.10
2023-03-16T05:10:05.661Z,18.00
2023-03-16T05:12:33.654Z,18.10
2023-03-16T05:15:01.679Z,18.20
2023-03-16T05:17:31.045Z,18.20
2023-03-16T05:19:59.316Z,18.00
2023-03-16T05:22:27.418Z,18.00
2023-03-16T05:24:55.396Z,17.90
2023-03-16T05:27:23.436Z,17.60
2023-03-16T05:29:51.461Z,17.80
2023-03-16T05:32:19.456Z,17.60
2023-03-16T05:34:48.819Z,17.60
2023-03-16T05:37:16.868Z,17.60
2023-03-16T05:39:44.857Z,17.60
2023-03-16T05:42:12.840Z,17.60
2023-03-16T05:44:40.959Z,17.50
2023-03-16T05:47:09.256Z,17.40
2023-03-16T05:49:37.266Z,17.60
2023-03-16T05:52:06.869Z,17.50
2023-03-16T05:54:34.986Z,17.60
2023-03-16T05:57:03.028Z,17.70
2023-03-16T05:59:30.971Z,17.50
2023-03-16T06:01:58.967Z,17.70
2023-03-16T06:04:26.970Z,17.70
2023-03-16T06:06:54.991Z,17.80
2023-03-16T06:09:24.360Z,17.60
2023-03-16T06:11:52.298Z,17.60
2023-03-16T06:14:20.419Z,17.80
2023-03-16T06:16:48.395Z,18.10
2023-03-16T06:19:16.411Z,17.60
2023-03-16T06:21:44.493Z,17.60
2023-03-16T06:24:12.493Z,18.10
2023-03-16T06:26:42.089Z,17.70
2023-03-16T06:29:10.137Z,17.80
2023-03-16T06:31:38.355Z,17.50
2023-03-16T06:34:06.388Z,17.90
2023-03-16T06:36:34.410Z,17.90
2023-03-16T06:39:02.445Z,17.60
2023-03-16T06:41:30.429Z,17.80
2023-03-16T06:43:59.864Z,17.90
2023-03-16T06:46:29.134Z,18.10
2023-03-16T06:48:57.119Z,18.20
2023-03-16T06:51:25.197Z,18.00
2023-03-16T06:53:53.218Z,18.10
2023-03-16T06:56:21.581Z,17.90
2023-03-16T06:58:49.587Z,18.00
2023-03-16T07:01:18.970Z,18.00
2023-03-16T07:03:47.076Z,18.10
2023-03-16T07:06:15.058Z,17.90
2023-03-16T07:08:43.366Z,17.90
2023-03-16T07:11:11.567Z,17.80
2023-03-16T07:13:39.782Z,18.10
2023-03-16T07:16:08.732Z,18.00
2023-03-16T07:18:39.900Z,18.10
2023-03-16T07:21:08.057Z,18.20
2023-03-16T07:23:36.132Z,18.10
2023-03-16T07:26:04.528Z,18.20
2023-03-16T07:28:32.541Z,18.20
2023-03-16T07:31:04.248Z,18.10
2023-03-16T07:33:33.133Z,18.10
2023-03-16T07:36:04.599Z,18.40
2023-03-16T07:38:33.473Z,18.10
2023-03-16T07:41:01.929Z,18.30
2023-03-16T07:43:30.241Z,18.00
2023-03-16T07:45:58.209Z,18.10
2023-03-16T07:48:26.604Z,18.20
2023-03-16T07:50:55.137Z,18.10
2023-03-16T07:53:24.806Z,18.20
2023-03-16T07:55:52.943Z,18.40
2023-03-16T07:58:21.580Z,18.10
2023-03-16T08:00:49.536Z,18.10
2023-03-16T08:03:17.645Z,18.40
2023-03-16T08:05:45.653Z,18.20
2023-03-16T08:08:15.869Z,18.10
2023-03-16T08:10:45.470Z,18.20
2023-03-16T08:13:14.007Z,18.60
2023-03-16T08:15:42.303Z,18.70
2023-03-16T08:18:10.317Z,18.50
2023-03-16T08:20:38.332Z,18.20
2023-03-16T08:23:06.872Z,18.50
2023-03-16T08:25:35.106Z,18.60
2023-03-16T08:28:04.715Z,18.30
2023-03-16T08:30:32.963Z,18.60
2023-03-16T08:33:03.102Z,18.80
2023-03-16T08:35:31.359Z,18.90
2023-03-16T08:37:59.801Z,18.90
2023-03-16T08:40:29.632Z,18.60
2023-03-16T08:42:58.132Z,18.90
2023-03-16T08:45:27.938Z,18.80
2023-03-16T08:47:56.013Z,19.00
2023-03-16T08:50:24.018Z,18.60
2023-03-16T08:52:52.078Z,18.70
2023-03-16T08:55:20.339Z,18.80
2023-03-16T08:57:48.736Z,18.60
2023-03-16T09:00:17.886Z,18.90
2023-03-16T09:02:47.855Z,18.90
2023-03-16T09:05:18.157Z,18.80
2023-03-16T09:07:48.887Z,18.80
2023-03-16T09:10:17.336Z,19.10
2023-03-16T09:12:45.793Z,18.70
2023-03-16T09:15:14.763Z,18.90
2023-03-16T09:17:44.912Z,19.10
2023-03-16T09:20:22.849Z,19.10
2023-03-16T09:22:55.591Z,18.90
2023-03-16T09:25:24.087Z,19.30
2023-03-16T09:27:52.699Z,19.50
2023-03-16T09:30:20.767Z,19.10
2023-03-16T09:32:49.140Z,19.60
2023-03-16T09:35:19.560Z,19.50
2023-03-16T09:38:04.789Z,19.70
2023-03-16T09:40:34.109Z,19.90
2023-03-16T09:43:24.790Z,19.90
2023-03-16T09:46:02.688Z,19.50
2023-03-16T09:48:35.498Z,19.70
2023-03-16T09:51:07.636Z,19.60
2023-03-16T09:53:39.161Z,19.60
2023-03-16T09:56:12.353Z,19.90
2023-03-16T09:58:40.670Z,19.70
2023-03-16T10:01:19.270Z,19.50
2023-03-16T10:04:06.649Z,19.60
2023-03-16T10:06:45.775Z,19.90
2023-03-16T10:09:28.277Z,19.50
2023-03-16T10:11:58.911Z,19.40
2023-03-16T10:14:34.662Z,19.50
2023-03-16T10:17:06.842Z,19.60
2023-03-16T10:19:41.304Z,19.70
2023-03-16T10:22:21.367Z,19.70
2023-03-16T10:25:02.492Z,19.60
2023-03-16T10:27:33.454Z,19.80
2023-03-16T10:30:07.164Z,19.70
2023-03-16T10:32:36.592Z,19.80
2023-03-16T10:35:15.879Z,19.90
2023-03-16T10:37:46.516Z,19.70
2023-03-16T10:40:15.137Z,19.80
2023-03-16T10:42:43.810Z,19.80
2023-03-16T10:45:27.573Z,19.80
2023-03-16T10:48:08.287Z,20.40
2023-03-16T10:50:37.045Z,19.80
2023-03-16T10:53:16.624Z,20.30
2023-03-16T10:55:45.757Z,20.30
2023-03-16T10:58:26.113Z,20.50
2023-03-16T11:00:55.100Z,20.50
2023-03-16T11:03:28.749Z,20.60
2023-03-16T11:06:02.453Z,20.50
2023-03-16T11:08:35.867Z,20.30
2023-03-16T11:11:13.151Z,20.60
2023-03-16T11:13:47.442Z,20.40
2023-03-16T11:16:25.636Z,20.60
2023-03-16T11:18:57.968Z,20.60
2023-03-16T11:21:39.735Z,20.60
2023-03-16T11:24:18.203Z,20.80
2023-03-16T11:26:49.957Z,20.90
2023-03-16T11:29:24.754Z,20.80
2023-03-16T11:31:56.130Z,21.00
2023-03-16T11:34:30.497Z,21.20
2023-03-16T11:37:06.465Z,21.40
2023-03-16T11:39:45.874Z,21.00
2023-03-16T11:42:31.111Z,21.10
2023-03-16T11:45:11.649Z,20.90
2023-03-16T11:48:26.259Z,21.40
2023-03-16T11:51:07.529Z,21.20
2023-03-16T11:53:53.851Z,21.40
2023-03-16T11:56:34.314Z,21.60
2023-03-16T11:59:19.549Z,21.70
2023-03-16T12:02:05.918Z,21.60
2023-03-16T12:05:10.194Z,21.60
2023-03-16T12:07:52.674Z,21.40
2023-03-16T12:10:27.299Z,21.60
2023-03-16T12:13:13.348Z,21.50
2023-03-16T12:15:47.729Z,21.70
2023-03-16T12:18:21.271Z,21.60
2023-03-16T12:20:56.170Z,21.60
2023-03-16T12:23:32.356Z,21.60
2023-03-16T12:26:03.504Z,21.70
2023-03-16T12:28:34.280Z,21.60
2023-03-16T12:31:13.103Z,21.60
2023-03-16T12:33:58.767Z,21.50
2023-03-16T12:36:52.523Z,21.50
2023-03-16T12:39:34.133Z,21.70
2023-03-16T12:42:21.756Z,21.70
2023-03-16T12:44:58.518Z,21.60
2023-03-16T12:47:33.676Z,21.60
2023-03-16T12:50:07.402Z,21.50
2023-03-16T12:52:43.523Z,21.30
2023-03-16T12:55:17.566Z,21.30
2023-03-16T12:57:49.123Z,21.00
2023-03-16T13:00:21.386Z,21.30
2023-03-16T13:02:57.200Z,21.20
2023-03-16T13:05:32.824Z,21.40
2023-03-16T13:08:11.510Z,21.30
2023-03-16T13:10:40.234Z,21.10
2023-03-16T13:13:14.953Z,21.00
2023-03-16T13:15:47.287Z,21.50
2023-03-16T13:18:24.809Z,21.00
2023-03-16T13:20:58.940Z,21.50
2023-03-16T13:23:30.013Z,21.50
2023-03-16T13:26:16.306Z,21.40
2023-03-16T13:28:51.243Z,21.40
2023-03-16T13:31:28.595Z,21.20
2023-03-16T13:34:00.014Z,21.30
2023-03-16T13:36:30.102Z,21.50
2023-03-16T13:39:05.395Z,21.70
2023-03-16T13:41:34.231Z,21.70
2023-03-16T13:44:02.662Z,21.80
2023-03-16T13:46:31.934Z,21.90
2023-03-16T13:49:01.101Z,22.10
2023-03-16T13:51:34.132Z,22.00
2023-03-16T13:54:09.393Z,21.80
2023-03-16T13:56:39.881Z,22.00
2023-03-16T13:59:10.515Z,21.70
2023-03-16T14:01:40.448Z,22.00
2023-03-16T14:04:18.652Z,21.90
2023-03-16T14:06:56.057Z,22.00
2023-03-16T14:09:30.519Z,22.10
2023-03-16T14:11:58.604Z,21.90
2023-03-16T14:14:30.844Z,22.10
2023-03-16T14:17:11.806Z,22.00
2023-03-16T14:19:44.368Z,22.00
2023-03-16T14:22:16.289Z,22.20
2023-03-16T14:24:47.815Z,22.40
2023-03-16T14:27:23.769Z,22.30
2023-03-16T14:30:18.074Z,22.40
2023-03-16T14:32:59.772Z,22.00
2023-03-16T14:35:32.198Z,22.30
2023-03-16T14:38:23.209Z,22.10
2023-03-16T14:40:55.989Z,22.50
2023-03-16T14:43:32.630Z,22.50
2023-03-16T14:46:01.936Z,22.30
2023-03-16T14:48:31.328Z,22.10
2023-03-16T14:51:02.883Z,22.40
2023-03-16T14:53:31.652Z,22.30
2023-03-16T14:56:00.780Z,22.10
2023-03-16T14:58:28.785Z,22.20
2023-03-16T15:00:57.937Z,22.30
2023-03-16T15:03:35.107Z,22.30
2023-03-16T15:06:03.921Z,21.90
2023-03-16T15:08:36.963Z,21.80
2023-03-16T15:11:07.119Z,22.20
2023-03-16T15:13:52.958Z,21.70
2023-03-16T15:16:23.022Z,22.20
2023-03-16T15:18:52.825Z,21.70
2023-03-16T15:21:24.157Z,21.70
2023-03-16T15:23:52.323Z,21.60
2023-03-16T15:26:27.114Z,21.50
2023-03-16T15:28:55.687Z,21.70
2023-03-16T15:31:24.199Z,21.70
2023-03-16T15:33:53.680Z,21.50
2023-03-16T15:36:24.218Z,21.60
2023-03-16T15:38:54.807Z,21.60
2023-03-16T15:41:24.819Z,21.80
2023-03-16T15:43:52.903Z,21.50
2023-03-16T15:46:21.131Z,20.90
2023-03-16T15:48:49.222Z,20.80
2023-03-16T15:51:24.625Z,20.70
2023-03-16T15:53:56.541Z,20.00
2023-03-16T15:56:30.139Z,19.90
2023-03-16T15:59:00.915Z,20.00
2023-03-16T16:01:34.751Z,20.10
2023-03-16T16:04:03.406Z,19.70
2023-03-16T16:06:32.857Z,19.90
2023-03-16T16:09:00.960Z,20.00
2023-03-16T16:11:29.743Z,19.90
2023-03-16T16:13:59.323Z,19.80
2023-03-16T16:16:29.911Z,19.40
2023-03-16T16:18:58.002Z,19.70
2023-03-16T16:21:29.002Z,19.60
2023-03-16T16:23:58.678Z,19.50
2023-03-16T16:26:46.908Z,19.40
2023-03-16T16:29:17.634Z,19.70
2023-03-16T16:31:46.074Z,19.60
2023-03-16T16:34:16.991Z,19.60
2023-03-16T16:36:45.505Z,19.30
2023-03-16T16:39:15.000Z,19.30
2023-03-16T16:41:43.719Z,19.30
2023-03-16T16:44:18.410Z,19.50
2023-03-16T16:46:48.088Z,19.20
2023-03-16T16:49:20.098Z,19.40
2023-03-16T16:51:48.297Z,19.60
2023-03-16T16:54:19.580Z,19.70
2023-03-16T16:56:51.798Z,19.90
2023-03-16T16:59:22.775Z,19.60
2023-03-16T17:01:53.850Z,19.70
2023-03-16T17:04:24.772Z,19.70
2023-03-16T17:06:55.577Z,19.70
2023-03-16T17:09:27.117Z,19.80
2023-03-16T17:11:58.528Z,19.60
2023-03-16T17:14:28.299Z,19.60
2023-03-16T17:16:56.981Z,19.60
2023-03-16T17:19:27.897Z,19.70
2023-03-16T17:21:58.200Z,19.70
2023-03-16T17:24:28.680Z,19.70
2023-03-16T17:27:00.248Z,19.70
2023-03-16T17:29:31.258Z,19.80
2023-03-16T17:32:00.696Z,19.30
2023-03-16T17:34:31.833Z,19.50
2023-03-16T17:37:00.019Z,19.70
2023-03-16T17:39:31.994Z,19.60
2023-03-16T17:42:02.050Z,19.90
2023-03-16T17:44:33.818Z,19.80
2023-03-16T17:47:01.961Z,20.10
2023-03-16T17:49:31.584Z,19.90
2023-03-16T17:51:59.574Z,20.30
2023-03-16T17:54:29.009Z,20.30
2023-03-16T17:56:57.078Z,20.20
2023-03-16T17:59:25.056Z,20.20
2023-03-16T18:01:53.123Z,19.80
2023-03-16T18:04:23.784Z,20.10
2023-03-16T18:06:52.226Z,20.10
2023-03-16T18:09:21.514Z,20.10
2023-03-16T18:11:52.301Z,19.90
2023-03-16T18:14:34.730Z,20.30
2023-03-16T18:17:03.540Z,20.30
2023-03-16T18:19:33.325Z,20.30
2023-03-16T18:22:01.343Z,20.10
2023-03-16T18:24:29.758Z,20.20
2023-03-16T18:26:59.070Z,20.20
2023-03-16T18:29:27.083Z,20.30
2023-03-16T18:31:59.184Z,20.30
2023-03-16T18:34:35.613Z,20.20
2023-03-16T18:37:06.045Z,20.50
2023-03-16T18:39:34.500Z,20.30
2023-03-16T18:42:03.909Z,19.90
2023-03-16T18:44:33.193Z,20.20
2023-03-16T18:47:04.641Z,20.60
2023-03-16T18:49:35.969Z,20.30
2023-03-16T18:52:05.134Z,20.50
2023-03-16T18:54:35.472Z,20.30
2023-03-16T18:57:11.752Z,20.10
2023-03-16T18:59:39.666Z,20.00
2023-03-16T19:02:28.384Z,20.20
2023-03-16T19:04:58.506Z,20.10
2023-03-16T19:07:34.231Z,20.30
2023-03-16T19:10:08.454Z,20.30
2023-03-16T19:12:37.806Z,20.10
2023-03-16T19:15:19.651Z,20.20
2023-03-16T19:17:48.523Z,20.10
2023-03-16T19:20:19.350Z,20.20
2023-03-16T19:22:49.147Z,20.20
2023-03-16T19:25:20.904Z,20.20
2023-03-16T19:27:50.543Z,20.20
2023-03-16T19:30:26.298Z,20.30
2023-03-16T19:32:54.612Z,20.10
2023-03-16T19:35:33.763Z,19.90
2023-03-16T19:38:09.282Z,20.30
2023-03-16T19:40:37.292Z,20.20
2023-03-16T19:43:07.039Z,19.90
2023-03-16T19:45:35.418Z,20.20
2023-03-16T19:48:03.723Z,20.30
2023-03-16T19:50:32.027Z,20.00
2023-03-16T19:53:00.793Z,19.90
2023-03-16T19:55:32.545Z,20.20
2023-03-16T19:58:05.908Z,20.20
2023-03-16T20:00:35.928Z,20.10
2023-03-16T20:03:04.089Z,20.10
2023-03-16T20:05:33.620Z,20.30
2023-03-16T20:08:03.621Z,20.10
2023-03-16T20:10:33.204Z,19.90
2023-03-16T20:13:02.481Z,20.20
2023-03-16T20:15:35.337Z,20.00
2023-03-16T20:18:03.513Z,20.00
2023-03-16T20:20:34.296Z,19.90
2023-03-16T20:23:02.798Z,19.90
2023-03-16T20:25:35.006Z,20.40
2023-03-16T20:28:05.015Z,19.90
2023-03-16T20:30:34.676Z,20.00
2023-03-16T20:33:03.586Z,20.10
2023-03-16T20:35:32.426Z,20.10
2023-03-16T20:38:00.539Z,19.70
2023-03-16T20:40:28.604Z,19.90
2023-03-16T20:42:56.556Z,20.10
2023-03-16T20:45:28.305Z,20.10
2023-03-16T20:47:58.294Z,20.10
2023-03-16T20:50:29.654Z,20.10
2023-03-16T20:52:57.845Z,20.40
2023-03-16T20:55:29.701Z,19.80
2023-03-16T20:57:58.456Z,20.10
2023-03-16T21:00:33.226Z,19.90
2023-03-16T21:03:05.293Z,20.20
2023-03-16T21:05:33.749Z,20.00
2023-03-16T21:08:01.728Z,20.10
2023-03-16T21:10:30.667Z,20.20
2023-03-16T21:12:59.077Z,19.90
2023-03-16T21:15:31.110Z,20.00
2023-03-16T21:18:03.545Z,20.20
2023-03-16T21:20:33.798Z,20.30
2023-03-16T21:23:03.189Z,19.90
2023-03-16T21:25:35.159Z,20.30
2023-03-16T21:28:06.008Z,20.20
2023-03-16T21:30:38.266Z,20.00
2023-03-16T21:33:20.180Z,19.90
2023-03-16T21:35:48.923Z,20.00
2023-03-16T21:38:20.796Z,19.80
2023-03-16T21:40:49.267Z,20.10
2023-03-16T21:43:17.670Z,20.20
2023-03-16T21:45:47.353Z,19.90
2023-03-16T21:48:21.476Z,19.80
2023-03-16T21:50:50.968Z,19.80
2023-03-16T21:53:23.416Z,20.20
2023-03-16T21:55:53.302Z,20.10
2023-03-16T21:58:22.095Z,19.80
2023-03-16T22:00:52.591Z,19.70
2023-03-16T22:03:37.797Z,19.60
2023-03-16T22:06:13.603Z,19.60
2023-03-16T22:08:41.684Z,19.90
2023-03-16T22:11:17.831Z,19.80
2023-03-16T22:13:46.343Z,19.70
2023-03-16T22:16:17.209Z,19.70
2023-03-16T22:18:48.474Z,19.70
2023-03-16T22:21:29.807Z,19.80
2023-03-16T22:23:59.159Z,19.80
2023-03-16T22:26:28.829Z,19.70
2023-03-16T22:28:58.130Z,19.40
2023-03-16T22:31:31.875Z,19.50
2023-03-16T22:34:02.050Z,19.70
2023-03-16T22:36:33.018Z,19.60
2023-03-16T22:39:05.279Z,19.60
2023-03-16T22:41:33.425Z,19.50
2023-03-16T22:44:02.807Z,19.60
2023-03-16T22:46:31.582Z,19.40
2023-03-16T22:49:01.114Z,19.60
2023-03-16T22:51:33.289Z,19.60
2023-03-16T22:54:04.747Z,19.50
2023-03-16T22:56:33.791Z,19.60
2023-03-16T22:59:05.766Z,19.60
2023-03-16T23:01:37.438Z,19.60
2023-03-16T23:04:15.866Z,19.50
2023-03-16T23:06:44.482Z,19.60
2023-03-16T23:09:15.269Z,19.70
2023-03-16T23:11:45.792Z,19.30
2023-03-16T23:14:15.858Z,19.50
2023-03-16T23:16:44.830Z,19.40
2023-03-16T23:19:25.190Z,19.70
2023-03-16T23:21:55.600Z,19.30
2023-03-16T23:24:24.213Z,19.10
2023-03-16T23:26:53.363Z,19.20
2023-03-16T23:29:22.885Z,19.10
2023-03-16T23:31:51.429Z,19.10
2023-03-16T23:34:23.258Z,19.00
2023-03-16T23:36:52.472Z,19.10
2023-03-16T23:39:20.549Z,19.10
2023-03-16T23:41:50.999Z,19.20
2023-03-16T23:44:22.155Z,18.80
2023-03-16T23:46:50.738Z,19.10
2023-03-16T23:49:23.679Z,18.80
2023-03-16T23:51:52.944Z,18.80
2023-03-16T23:54:24.008Z,19.00
2023-03-16T23:56:52.171Z,18.80
2023-03-16T23:59:20.877Z,19.00
